Potomac — WBF7534 — position and weather

sailwx.info

Track history (hours):
 
Tides and Currents Weather Stations Pressure Air Temp Water Temp Dewpoint Dewpoint Depression Visibility Wind Speed Wind Dir Waves Ship Positions

Potomac

Owner: POTOMAC ASSOCIATION, OAKLAND, CA. More information available from US FCC via Universal Licensing System and Coast Guard Vessel Documentation Center.

Last reported at 2017-Oct-16 00:06 UTC. Time now 2017-Oct-17 20:20 UTC.
Position N 37°48' W 122°17'.

Length 51 m; draft 3.1 m.

MMSI: 367166810.

Date/timePositionNaut miles runAvg speedWind from/ knotsBaromVisibWave heightAir tempDewpointWater temp
2017-Oct-16 00:06N 37°48' W 122°17'0 0.0
2017-Oct-16 00:00N 37°48' W 122°17'3 6.8
2017-Oct-15 23:30N 37°48' W 122°21'4 7.3
2017-Oct-15 23:00N 37°49' W 122°26'4 8.3
2017-Oct-15 22:30N 37°48' W 122°20'3 5.1
2017-Oct-15 21:56N 37°48' W 122°17'0 0.0
2017-Oct-15 21:29N 37°48' W 122°17'0 0.0
2017-Oct-15 20:59N 37°48' W 122°17'  
2017-Oct-08 23:46N 37°48' W 122°17'0 0.3
2017-Oct-08 23:30N 37°48' W 122°17'5 9.0
2017-Oct-08 23:00N 37°50' W 122°22'3 5.7
2017-Oct-08 22:30N 37°50' W 122°25'1 1.1
2017-Oct-08 22:00N 37°50' W 122°26'1 2.2
2017-Oct-08 21:30N 37°49' W 122°26'4 7.8
2017-Oct-08 21:00N 37°48' W 122°21'4 7.3
2017-Oct-08 20:30N 37°48' W 122°17'0 0.0
2017-Oct-08 20:00N 37°48' W 122°17'0 0.0
2017-Oct-08 19:29N 37°48' W 122°17'0 0.0
2017-Oct-08 18:59N 37°48' W 122°17'0 0.0
2017-Oct-08 06:11N 37°48' W 122°17'0 0.0
2017-Oct-08 06:00N 37°48' W 122°17'3 5.7
2017-Oct-08 05:30N 37°48' W 122°20'2 4.6
2017-Oct-08 05:00N 37°47' W 122°23'0 0.9
2017-Oct-08 04:30N 37°47' W 122°23'2 3.1
2017-Oct-08 04:00N 37°49' W 122°24'0 0.9
2017-Oct-08 03:30N 37°49' W 122°24'2 4.2
2017-Oct-08 03:00N 37°47' W 122°23'0 0.1
2017-Oct-08 02:30N 37°47' W 122°23'0 0.6
2017-Oct-08 02:00N 37°47' W 122°23'5 9.6
2017-Oct-08 01:30N 37°48' W 122°17'0 0.2
2017-Oct-08 01:00N 37°48' W 122°17'0 0.0
2017-Oct-08 00:30N 37°48' W 122°17'0 0.0
2017-Oct-08 00:00N 37°48' W 122°17'0 0.0
2017-Oct-07 23:30N 37°48' W 122°17'4 8.9
2017-Oct-07 23:00N 37°48' W 122°22'3 5.5
2017-Oct-07 22:30N 37°49' W 122°26'1 1.2
2017-Oct-07 22:00N 37°49' W 122°26'1 1.5
2017-Oct-07 21:30N 37°49' W 122°26'3 6.7
2017-Oct-07 21:00N 37°48' W 122°22'4 8.6
2017-Oct-07 20:30N 37°48' W 122°17'0 0.0
2017-Oct-07 20:00N 37°48' W 122°17'0 0.0
2017-Oct-06 23:39N 37°48' W 122°17'0 1.5
2017-Oct-06 23:30N 37°48' W 122°17'5 9.4
2017-Oct-06 23:00N 37°49' W 122°23'3 5.1
2017-Oct-06 22:30N 37°49' W 122°26'1 2.5
2017-Oct-06 22:00N 37°49' W 122°27'1 2.9
2017-Oct-06 21:31N 37°49' W 122°26'5 9.4
2017-Oct-06 21:00N 37°48' W 122°20'2 5.0
2017-Oct-06 20:30N 37°48' W 122°17'0 0.0
2017-Oct-06 20:01N 37°48' W 122°17'0 0.0
2017-Oct-06 19:30N 37°48' W 122°17'0 0.0
2017-Oct-06 19:01N 37°48' W 122°17'  
Track history (hours):
 
Tides and Currents Weather Stations Pressure Air Temp Water Temp Dewpoint Dewpoint Depression Visibility Wind Speed Wind Dir Waves Ship Positions

Potomac

Owner: POTOMAC ASSOCIATION, OAKLAND, CA. More information available from US FCC via Universal Licensing System and Coast Guard Vessel Documentation Center.

Last reported at 2017-Oct-16 00:06 UTC. Time now 2017-Oct-17 20:20 UTC.
Position N 37°48' W 122°17'.

Length 51 m; draft 3.1 m.

MMSI: 367166810.

Date/timePositionNaut miles runAvg speedWind from/ knotsBaromVisibWave heightAir tempDewpointWater temp
2017-Oct-16 00:06N 37°48' W 122°17'0 0.0
2017-Oct-16 00:00N 37°48' W 122°17'3 6.8
2017-Oct-15 23:30N 37°48' W 122°21'4 7.3
2017-Oct-15 23:00N 37°49' W 122°26'4 8.3
2017-Oct-15 22:30N 37°48' W 122°20'3 5.1
2017-Oct-15 21:56N 37°48' W 122°17'0 0.0
2017-Oct-15 21:29N 37°48' W 122°17'0 0.0
2017-Oct-15 20:59N 37°48' W 122°17'  
2017-Oct-08 23:46N 37°48' W 122°17'0 0.3
2017-Oct-08 23:30N 37°48' W 122°17'5 9.0
2017-Oct-08 23:00N 37°50' W 122°22'3 5.7
2017-Oct-08 22:30N 37°50' W 122°25'1 1.1
2017-Oct-08 22:00N 37°50' W 122°26'1 2.2
2017-Oct-08 21:30N 37°49' W 122°26'4 7.8
2017-Oct-08 21:00N 37°48' W 122°21'4 7.3
2017-Oct-08 20:30N 37°48' W 122°17'0 0.0
2017-Oct-08 20:00N 37°48' W 122°17'0 0.0
2017-Oct-08 19:29N 37°48' W 122°17'0 0.0
2017-Oct-08 18:59N 37°48' W 122°17'0 0.0
2017-Oct-08 06:11N 37°48' W 122°17'0 0.0
2017-Oct-08 06:00N 37°48' W 122°17'3 5.7
2017-Oct-08 05:30N 37°48' W 122°20'2 4.6
2017-Oct-08 05:00N 37°47' W 122°23'0 0.9
2017-Oct-08 04:30N 37°47' W 122°23'2 3.1
2017-Oct-08 04:00N 37°49' W 122°24'0 0.9
2017-Oct-08 03:30N 37°49' W 122°24'2 4.2
2017-Oct-08 03:00N 37°47' W 122°23'0 0.1
2017-Oct-08 02:30N 37°47' W 122°23'0 0.6
2017-Oct-08 02:00N 37°47' W 122°23'5 9.6
2017-Oct-08 01:30N 37°48' W 122°17'0 0.2
2017-Oct-08 01:00N 37°48' W 122°17'0 0.0
2017-Oct-08 00:30N 37°48' W 122°17'0 0.0
2017-Oct-08 00:00N 37°48' W 122°17'0 0.0
2017-Oct-07 23:30N 37°48' W 122°17'4 8.9
2017-Oct-07 23:00N 37°48' W 122°22'3 5.5
2017-Oct-07 22:30N 37°49' W 122°26'1 1.2
2017-Oct-07 22:00N 37°49' W 122°26'1 1.5
2017-Oct-07 21:30N 37°49' W 122°26'3 6.7
2017-Oct-07 21:00N 37°48' W 122°22'4 8.6
2017-Oct-07 20:30N 37°48' W 122°17'0 0.0
2017-Oct-07 20:00N 37°48' W 122°17'0 0.0
2017-Oct-06 23:39N 37°48' W 122°17'0 1.5
2017-Oct-06 23:30N 37°48' W 122°17'5 9.4
2017-Oct-06 23:00N 37°49' W 122°23'3 5.1
2017-Oct-06 22:30N 37°49' W 122°26'1 2.5
2017-Oct-06 22:00N 37°49' W 122°27'1 2.9
2017-Oct-06 21:31N 37°49' W 122°26'5 9.4
2017-Oct-06 21:00N 37°48' W 122°20'2 5.0
2017-Oct-06 20:30N 37°48' W 122°17'0 0.0
2017-Oct-06 20:01N 37°48' W 122°17'0 0.0
2017-Oct-06 19:30N 37°48' W 122°17'0 0.0
2017-Oct-06 19:01N 37°48' W 122°17'  

Dump ship's entire track history